Explora — IXWQ — position and weather

sailwx.info

Track history (hours):
 
Tides and Currents Weather Stations Pressure Air Temp Water Temp Dewpoint Dewpoint Depression Visibility Wind Speed Wind Dir Waves Ship Positions

Oceanographic research ship Explora (Italy)

Detailed information on ship capabilities available from University of Delaware's Ocean Information Center.

Last reported at 2015-Apr-17 15:28 UTC. Time now 2015-May-07 00:35 UTC.
Position N 39°05' E 017°08'.
Warning: this ship's position is 19 days out of date.

Length 73 m; draft 5.5 m.

Type: Dredging. MMSI: 247028700.

Date/timePositionNaut miles runAvg speedWind from/ knotsBaromVisibWave heightAir tempDewpointWater temp
2015-Apr-17 15:28N 39°05' E 017°08'  
2015-Apr-12 05:06N 39°07' E 017°16'5 8.7
2015-Apr-12 04:33N 39°08' E 017°22'12 8.6
2015-Apr-12 03:07N 39°12' E 017°38'5 8.7
2015-Apr-12 02:33N 39°13' E 017°44'29 8.4
2015-Apr-11 23:07N 39°21' E 018°20'5 8.3
2015-Apr-11 22:30N 39°25' E 018°24'10 8.6
2015-Apr-11 21:22N 39°33' E 018°29'8 8.6
2015-Apr-11 20:25N 39°41' E 018°34'10 8.5
2015-Apr-11 19:18N 39°49' E 018°39'6 8.5
2015-Apr-11 18:33N 39°55' E 018°43'9 8.7
2015-Apr-11 17:27N 40°04' E 018°48'8 8.3
2015-Apr-11 16:29N 40°08' E 018°57'0 0.2
2015-Apr-11 15:26N 40°08' E 018°57'0 0.2
2015-Apr-11 14:21N 40°08' E 018°57'0 0.4
2015-Apr-11 13:30N 40°07' E 018°57'25 5.6
2015-Apr-11 09:07N 40°24' E 018°33'3 4.9
2015-Apr-11 08:29N 40°26' E 018°30'0 0.0
2015-Apr-11 07:33N 40°26' E 018°30'2 1.8
2015-Apr-11 06:23N 40°25' E 018°28'2 2.5
2015-Apr-11 05:27N 40°24' E 018°26'19 1.6
2015-Apr-10 17:30N 40°15' E 018°48'4 3.9
2015-Apr-10 16:33N 40°12' E 018°46'4 3.9
2015-Apr-10 15:31N 40°09' E 018°43'2 1.9
2015-Apr-10 14:31N 40°07' E 018°42'  
Track history (hours):
 
Tides and Currents Weather Stations Pressure Air Temp Water Temp Dewpoint Dewpoint Depression Visibility Wind Speed Wind Dir Waves Ship Positions

Oceanographic research ship Explora (Italy)

Detailed information on ship capabilities available from University of Delaware's Ocean Information Center.

Last reported at 2015-Apr-17 15:28 UTC. Time now 2015-May-07 00:35 UTC.
Position N 39°05' E 017°08'.
Warning: this ship's position is 19 days out of date.

Length 73 m; draft 5.5 m.

Type: Dredging. MMSI: 247028700.

Date/timePositionNaut miles runAvg speedWind from/ knotsBaromVisibWave heightAir tempDewpointWater temp
2015-Apr-17 15:28N 39°05' E 017°08'  
2015-Apr-12 05:06N 39°07' E 017°16'5 8.7
2015-Apr-12 04:33N 39°08' E 017°22'12 8.6
2015-Apr-12 03:07N 39°12' E 017°38'5 8.7
2015-Apr-12 02:33N 39°13' E 017°44'29 8.4
2015-Apr-11 23:07N 39°21' E 018°20'5 8.3
2015-Apr-11 22:30N 39°25' E 018°24'10 8.6
2015-Apr-11 21:22N 39°33' E 018°29'8 8.6
2015-Apr-11 20:25N 39°41' E 018°34'10 8.5
2015-Apr-11 19:18N 39°49' E 018°39'6 8.5
2015-Apr-11 18:33N 39°55' E 018°43'9 8.7
2015-Apr-11 17:27N 40°04' E 018°48'8 8.3
2015-Apr-11 16:29N 40°08' E 018°57'0 0.2
2015-Apr-11 15:26N 40°08' E 018°57'0 0.2
2015-Apr-11 14:21N 40°08' E 018°57'0 0.4
2015-Apr-11 13:30N 40°07' E 018°57'25 5.6
2015-Apr-11 09:07N 40°24' E 018°33'3 4.9
2015-Apr-11 08:29N 40°26' E 018°30'0 0.0
2015-Apr-11 07:33N 40°26' E 018°30'2 1.8
2015-Apr-11 06:23N 40°25' E 018°28'2 2.5
2015-Apr-11 05:27N 40°24' E 018°26'19 1.6
2015-Apr-10 17:30N 40°15' E 018°48'4 3.9
2015-Apr-10 16:33N 40°12' E 018°46'4 3.9
2015-Apr-10 15:31N 40°09' E 018°43'2 1.9
2015-Apr-10 14:31N 40°07' E 018°42'  

Dump ship's entire track history